sensor_id;sensor_type;location;lat;lon;timestamp;temperature;humidity
19200;DHT22;9732;52.498;5.408;2023-06-14T00:01:42;21.00;99.90
19200;DHT22;9732;52.498;5.408;2023-06-14T00:04:11;20.90;99.90
19200;DHT22;9732;52.498;5.408;2023-06-14T00:06:38;20.90;99.90
19200;DHT22;9732;52.498;5.408;2023-06-14T00:09:10;20.90;99.90
19200;DHT22;9732;52.498;5.408;2023-06-14T00:11:38;20.90;99.90
19200;DHT22;9732;52.498;5.408;2023-06-14T00:14:07;20.80;99.90
19200;DHT22;9732;52.498;5.408;2023-06-14T00:16:35;20.80;99.90
19200;DHT22;9732;52.498;5.408;2023-06-14T00:19:02;20.70;99.90
19200;DHT22;9732;52.498;5.408;2023-06-14T00:21:30;20.70;99.90
19200;DHT22;9732;52.498;5.408;2023-06-14T00:23:58;20.60;99.90
19200;DHT22;9732;52.498;5.408;2023-06-14T00:26:27;20.60;99.90
19200;DHT22;9732;52.498;5.408;2023-06-14T00:28:54;20.60;99.70
19200;DHT22;9732;52.498;5.408;2023-06-14T00:31:22;20.60;99.90
19200;DHT22;9732;52.498;5.408;2023-06-14T00:33:49;20.60;99.90
19200;DHT22;9732;52.498;5.408;2023-06-14T00:36:17;20.50;99.80
19200;DHT22;9732;52.498;5.408;2023-06-14T00:38:44;20.50;99.90
19200;DHT22;9732;52.498;5.408;2023-06-14T00:41:11;20.40;99.90
19200;DHT22;9732;52.498;5.408;2023-06-14T00:43:40;20.40;99.90
19200;DHT22;9732;52.498;5.408;2023-06-14T00:46:08;20.40;99.90
19200;DHT22;9732;52.498;5.408;2023-06-14T00:48:37;20.30;99.90
19200;DHT22;9732;52.498;5.408;2023-06-14T00:51:07;20.40;99.90
19200;DHT22;9732;52.498;5.408;2023-06-14T00:53:34;20.30;99.90
19200;DHT22;9732;52.498;5.408;2023-06-14T00:56:02;20.30;99.90
19200;DHT22;9732;52.498;5.408;2023-06-14T00:58:31;20.20;99.90
19200;DHT22;9732;52.498;5.408;2023-06-14T01:01:01;20.20;99.90
19200;DHT22;9732;52.498;5.408;2023-06-14T01:03:28;20.20;99.90
19200;DHT22;9732;52.498;5.408;2023-06-14T01:06:04;20.10;99.90
19200;DHT22;9732;52.498;5.408;2023-06-14T01:08:47;20.00;99.90
19200;DHT22;9732;52.498;5.408;2023-06-14T01:11:21;20.00;99.90
19200;DHT22;9732;52.498;5.408;2023-06-14T01:13:50;19.90;99.90
19200;DHT22;9732;52.498;5.408;2023-06-14T01:16:20;19.90;99.90
19200;DHT22;9732;52.498;5.408;2023-06-14T01:18:48;19.80;99.90
19200;DHT22;9732;52.498;5.408;2023-06-14T01:21:22;19.80;99.90
19200;DHT22;9732;52.498;5.408;2023-06-14T01:23:51;19.70;99.90
19200;DHT22;9732;52.498;5.408;2023-06-14T01:26:19;19.70;99.90
19200;DHT22;9732;52.498;5.408;2023-06-14T01:28:50;19.70;99.90
19200;DHT22;9732;52.498;5.408;2023-06-14T01:31:20;19.70;99.90
19200;DHT22;9732;52.498;5.408;2023-06-14T01:33:50;19.60;99.90
19200;DHT22;9732;52.498;5.408;2023-06-14T01:36:19;19.60;99.90
19200;DHT22;9732;52.498;5.408;2023-06-14T01:38:49;19.60;99.90
19200;DHT22;9732;52.498;5.408;2023-06-14T01:41:18;19.60;99.90
19200;DHT22;9732;52.498;5.408;2023-06-14T01:43:54;19.50;99.90
19200;DHT22;9732;52.498;5.408;2023-06-14T01:46:24;19.50;99.90
19200;DHT22;9732;52.498;5.408;2023-06-14T01:48:51;19.50;99.90
19200;DHT22;9732;52.498;5.408;2023-06-14T01:51:19;19.40;99.90
19200;DHT22;9732;52.498;5.408;2023-06-14T01:53:47;19.40;99.90
19200;DHT22;9732;52.498;5.408;2023-06-14T01:56:16;19.40;99.90
19200;DHT22;9732;52.498;5.408;2023-06-14T01:58:43;19.30;99.90
19200;DHT22;9732;52.498;5.408;2023-06-14T02:01:18;19.30;99.90
19200;DHT22;9732;52.498;5.408;2023-06-14T02:03:47;19.20;99.90
19200;DHT22;9732;52.498;5.408;2023-06-14T02:06:16;19.20;99.90
19200;DHT22;9732;52.498;5.408;2023-06-14T02:08:43;19.20;99.90
19200;DHT22;9732;52.498;5.408;2023-06-14T02:11:12;19.20;99.90
19200;DHT22;9732;52.498;5.408;2023-06-14T02:13:41;19.20;99.90
19200;DHT22;9732;52.498;5.408;2023-06-14T02:16:08;19.20;99.90
19200;DHT22;9732;52.498;5.408;2023-06-14T02:18:36;19.20;99.90
19200;DHT22;9732;52.498;5.408;2023-06-14T02:21:03;19.10;99.90
19200;DHT22;9732;52.498;5.408;2023-06-14T02:23:30;19.10;99.90
19200;DHT22;9732;52.498;5.408;2023-06-14T02:25:58;19.10;99.90
19200;DHT22;9732;52.498;5.408;2023-06-14T02:28:26;19.10;99.90
19200;DHT22;9732;52.498;5.408;2023-06-14T02:30:54;19.00;99.90
19200;DHT22;9732;52.498;5.408;2023-06-14T02:33:22;19.00;99.90
19200;DHT22;9732;52.498;5.408;2023-06-14T02:35:50;19.00;99.90
19200;DHT22;9732;52.498;5.408;2023-06-14T02:38:18;19.00;99.90
19200;DHT22;9732;52.498;5.408;2023-06-14T02:40:46;19.00;99.90
19200;DHT22;9732;52.498;5.408;2023-06-14T02:43:14;18.90;99.90
19200;DHT22;9732;52.498;5.408;2023-06-14T02:45:43;18.90;99.90
19200;DHT22;9732;52.498;5.408;2023-06-14T02:48:13;18.90;99.90
19200;DHT22;9732;52.498;5.408;2023-06-14T02:50:40;18.80;99.90
19200;DHT22;9732;52.498;5.408;2023-06-14T02:53:11;18.80;99.90
19200;DHT22;9732;52.498;5.408;2023-06-14T02:55:38;18.90;99.90
19200;DHT22;9732;52.498;5.408;2023-06-14T02:58:06;18.80;99.90
19200;DHT22;9732;52.498;5.408;2023-06-14T03:00:33;18.70;99.90
19200;DHT22;9732;52.498;5.408;2023-06-14T03:03:00;18.70;99.90
19200;DHT22;9732;52.498;5.408;2023-06-14T03:05:29;18.70;99.90
19200;DHT22;9732;52.498;5.408;2023-06-14T03:07:56;18.60;99.90
19200;DHT22;9732;52.498;5.408;2023-06-14T03:10:23;18.60;99.90
19200;DHT22;9732;52.498;5.408;2023-06-14T03:12:50;18.60;99.90
19200;DHT22;9732;52.498;5.408;2023-06-14T03:15:18;18.50;99.90
19200;DHT22;9732;52.498;5.408;2023-06-14T03:17:45;18.60;99.90
19200;DHT22;9732;52.498;5.408;2023-06-14T03:20:14;18.50;99.90
19200;DHT22;9732;52.498;5.408;2023-06-14T03:22:43;18.50;99.90
19200;DHT22;9732;52.498;5.408;2023-06-14T03:25:11;18.50;99.90
19200;DHT22;9732;52.498;5.408;2023-06-14T03:27:38;18.40;99.90
19200;DHT22;9732;52.498;5.408;2023-06-14T03:30:07;18.40;99.90
19200;DHT22;9732;52.498;5.408;2023-06-14T03:32:34;18.30;99.90
19200;DHT22;9732;52.498;5.408;2023-06-14T03:35:01;18.40;99.90
19200;DHT22;9732;52.498;5.408;2023-06-14T03:37:29;18.40;99.90
19200;DHT22;9732;52.498;5.408;2023-06-14T03:39:57;18.40;99.90
19200;DHT22;9732;52.498;5.408;2023-06-14T03:42:26;18.30;99.90
19200;DHT22;9732;52.498;5.408;2023-06-14T03:44:54;18.30;99.90
19200;DHT22;9732;52.498;5.408;2023-06-14T03:47:20;18.20;99.90
19200;DHT22;9732;52.498;5.408;2023-06-14T03:49:49;18.20;99.90
19200;DHT22;9732;52.498;5.408;2023-06-14T03:52:16;18.20;99.90
19200;DHT22;9732;52.498;5.408;2023-06-14T03:54:43;18.20;99.90
19200;DHT22;9732;52.498;5.408;2023-06-14T03:57:12;18.10;99.90
19200;DHT22;9732;52.498;5.408;2023-06-14T03:59:40;18.20;99.90
19200;DHT22;9732;52.498;5.408;2023-06-14T04:02:07;18.20;99.90
19200;DHT22;9732;52.498;5.408;2023-06-14T04:04:38;18.20;99.90
19200;DHT22;9732;52.498;5.408;2023-06-14T04:07:05;18.20;99.90
19200;DHT22;9732;52.498;5.408;2023-06-14T04:09:35;18.10;99.90
19200;DHT22;9732;52.498;5.408;2023-06-14T04:12:04;18.10;99.90
19200;DHT22;9732;52.498;5.408;2023-06-14T04:14:32;18.10;99.90
19200;DHT22;9732;52.498;5.408;2023-06-14T04:17:01;18.00;99.90
19200;DHT22;9732;52.498;5.408;2023-06-14T04:19:28;18.00;99.90
19200;DHT22;9732;52.498;5.408;2023-06-14T04:21:55;18.00;99.90
19200;DHT22;9732;52.498;5.408;2023-06-14T04:24:22;18.00;99.90
19200;DHT22;9732;52.498;5.408;2023-06-14T04:26:54;18.00;99.90
19200;DHT22;9732;52.498;5.408;2023-06-14T04:29:25;18.10;99.90
19200;DHT22;9732;52.498;5.408;2023-06-14T04:31:54;18.00;99.90
19200;DHT22;9732;52.498;5.408;2023-06-14T04:34:24;18.10;99.90
19200;DHT22;9732;52.498;5.408;2023-06-14T04:36:55;18.10;99.90
19200;DHT22;9732;52.498;5.408;2023-06-14T04:39:27;18.10;99.90
19200;DHT22;9732;52.498;5.408;2023-06-14T04:41:54;18.10;99.90
19200;DHT22;9732;52.498;5.408;2023-06-14T04:44:23;18.10;99.90
19200;DHT22;9732;52.498;5.408;2023-06-14T04:46:58;18.10;99.90
19200;DHT22;9732;52.498;5.408;2023-06-14T04:49:29;18.00;99.90
19200;DHT22;9732;52.498;5.408;2023-06-14T04:51:57;18.00;99.90
19200;DHT22;9732;52.498;5.408;2023-06-14T04:54:25;18.00;99.90
19200;DHT22;9732;52.498;5.408;2023-06-14T04:56:54;18.00;99.90
19200;DHT22;9732;52.498;5.408;2023-06-14T04:59:22;18.00;99.90
19200;DHT22;9732;52.498;5.408;2023-06-14T05:01:51;18.00;99.90
19200;DHT22;9732;52.498;5.408;2023-06-14T05:04:21;18.00;99.90
19200;DHT22;9732;52.498;5.408;2023-06-14T05:06:50;17.90;99.90
19200;DHT22;9732;52.498;5.408;2023-06-14T05:09:16;18.00;99.90
19200;DHT22;9732;52.498;5.408;2023-06-14T05:11:43;18.00;99.90
19200;DHT22;9732;52.498;5.408;2023-06-14T05:14:11;18.10;99.90
19200;DHT22;9732;52.498;5.408;2023-06-14T05:16:38;18.10;99.90
19200;DHT22;9732;52.498;5.408;2023-06-14T05:19:06;18.10;99.90
19200;DHT22;9732;52.498;5.408;2023-06-14T05:21:34;18.10;99.90
19200;DHT22;9732;52.498;5.408;2023-06-14T05:24:03;18.10;99.90
19200;DHT22;9732;52.498;5.408;2023-06-14T05:26:30;18.10;99.90
19200;DHT22;9732;52.498;5.408;2023-06-14T05:28:57;18.20;99.90
19200;DHT22;9732;52.498;5.408;2023-06-14T05:31:27;18.30;99.90
19200;DHT22;9732;52.498;5.408;2023-06-14T05:33:54;18.30;99.90
19200;DHT22;9732;52.498;5.408;2023-06-14T05:36:22;18.30;99.90
19200;DHT22;9732;52.498;5.408;2023-06-14T05:38:52;18.30;99.90
19200;DHT22;9732;52.498;5.408;2023-06-14T05:41:24;18.40;99.90
19200;DHT22;9732;52.498;5.408;2023-06-14T05:43:52;18.40;99.90
19200;DHT22;9732;52.498;5.408;2023-06-14T05:46:19;18.50;99.90
19200;DHT22;9732;52.498;5.408;2023-06-14T05:48:49;18.50;99.90
19200;DHT22;9732;52.498;5.408;2023-06-14T05:51:16;18.40;99.90
19200;DHT22;9732;52.498;5.408;2023-06-14T05:53:44;18.50;99.90
19200;DHT22;9732;52.498;5.408;2023-06-14T05:56:15;18.50;99.90
19200;DHT22;9732;52.498;5.408;2023-06-14T05:58:43;18.60;99.90
19200;DHT22;9732;52.498;5.408;2023-06-14T06:01:11;18.70;99.90
19200;DHT22;9732;52.498;5.408;2023-06-14T06:03:39;18.80;99.90
19200;DHT22;9732;52.498;5.408;2023-06-14T06:06:06;18.80;99.90
19200;DHT22;9732;52.498;5.408;2023-06-14T06:08:35;18.80;99.90
19200;DHT22;9732;52.498;5.408;2023-06-14T06:11:02;18.80;99.90
19200;DHT22;9732;52.498;5.408;2023-06-14T06:13:30;18.80;99.90
19200;DHT22;9732;52.498;5.408;2023-06-14T06:15:59;18.80;99.90
19200;DHT22;9732;52.498;5.408;2023-06-14T06:18:26;18.90;99.90
19200;DHT22;9732;52.498;5.408;2023-06-14T06:20:56;18.90;99.90
19200;DHT22;9732;52.498;5.408;2023-06-14T06:23:24;19.00;99.90
19200;DHT22;9732;52.498;5.408;2023-06-14T06:25:51;19.10;99.90
19200;DHT22;9732;52.498;5.408;2023-06-14T06:28:19;19.20;99.90
19200;DHT22;9732;52.498;5.408;2023-06-14T06:30:49;19.10;99.90
19200;DHT22;9732;52.498;5.408;2023-06-14T06:33:16;19.10;99.90
19200;DHT22;9732;52.498;5.408;2023-06-14T06:35:43;19.20;99.90
19200;DHT22;9732;52.498;5.408;2023-06-14T06:38:10;19.30;99.90
19200;DHT22;9732;52.498;5.408;2023-06-14T06:40:37;19.30;99.90
19200;DHT22;9732;52.498;5.408;2023-06-14T06:43:04;19.40;99.90
19200;DHT22;9732;52.498;5.408;2023-06-14T06:45:32;19.50;99.90
19200;DHT22;9732;52.498;5.408;2023-06-14T06:48:00;19.50;99.90
19200;DHT22;9732;52.498;5.408;2023-06-14T06:50:27;19.60;99.90
19200;DHT22;9732;52.498;5.408;2023-06-14T06:52:55;19.70;99.90
19200;DHT22;9732;52.498;5.408;2023-06-14T06:55:22;19.70;99.90
19200;DHT22;9732;52.498;5.408;2023-06-14T06:57:49;19.80;99.90
19200;DHT22;9732;52.498;5.408;2023-06-14T07:00:19;19.80;99.90
19200;DHT22;9732;52.498;5.408;2023-06-14T07:02:46;19.80;99.90
19200;DHT22;9732;52.498;5.408;2023-06-14T07:05:15;19.90;99.90
19200;DHT22;9732;52.498;5.408;2023-06-14T07:07:42;20.00;99.90
19200;DHT22;9732;52.498;5.408;2023-06-14T07:10:10;20.10;99.90
19200;DHT22;9732;52.498;5.408;2023-06-14T07:12:37;20.10;99.90
19200;DHT22;9732;52.498;5.408;2023-06-14T07:15:06;20.20;99.90
19200;DHT22;9732;52.498;5.408;2023-06-14T07:17:34;20.30;99.90
19200;DHT22;9732;52.498;5.408;2023-06-14T07:20:04;20.30;99.90
19200;DHT22;9732;52.498;5.408;2023-06-14T07:22:40;20.40;99.90
19200;DHT22;9732;52.498;5.408;2023-06-14T07:25:08;20.50;99.90
19200;DHT22;9732;52.498;5.408;2023-06-14T07:27:37;20.60;99.90
19200;DHT22;9732;52.498;5.408;2023-06-14T07:30:07;20.70;99.90
19200;DHT22;9732;52.498;5.408;2023-06-14T07:32:34;20.80;99.90
19200;DHT22;9732;52.498;5.408;2023-06-14T07:35:01;20.80;99.90
19200;DHT22;9732;52.498;5.408;2023-06-14T07:37:30;20.90;99.90
19200;DHT22;9732;52.498;5.408;2023-06-14T07:39:58;21.00;99.90
19200;DHT22;9732;52.498;5.408;2023-06-14T07:42:25;21.10;99.90
19200;DHT22;9732;52.498;5.408;2023-06-14T07:44:54;21.20;99.90
19200;DHT22;9732;52.498;5.408;2023-06-14T07:47:22;21.30;99.90
19200;DHT22;9732;52.498;5.408;2023-06-14T07:49:49;21.50;99.90
19200;DHT22;9732;52.498;5.408;2023-06-14T07:52:16;21.50;99.90
19200;DHT22;9732;52.498;5.408;2023-06-14T07:54:43;21.60;99.90
19200;DHT22;9732;52.498;5.408;2023-06-14T07:57:11;21.80;99.90
19200;DHT22;9732;52.498;5.408;2023-06-14T07:59:39;21.80;99.90
19200;DHT22;9732;52.498;5.408;2023-06-14T08:02:06;21.90;99.40
19200;DHT22;9732;52.498;5.408;2023-06-14T08:04:33;22.00;99.60
19200;DHT22;9732;52.498;5.408;2023-06-14T08:07:02;22.10;99.90
19200;DHT22;9732;52.498;5.408;2023-06-14T08:09:29;22.30;99.90
19200;DHT22;9732;52.498;5.408;2023-06-14T08:11:56;22.40;99.90
19200;DHT22;9732;52.498;5.408;2023-06-14T08:14:25;22.50;99.30
19200;DHT22;9732;52.498;5.408;2023-06-14T08:16:52;22.60;99.90
19200;DHT22;9732;52.498;5.408;2023-06-14T08:19:19;22.60;99.20
19200;DHT22;9732;52.498;5.408;2023-06-14T08:21:46;22.70;98.40
19200;DHT22;9732;52.498;5.408;2023-06-14T08:24:15;22.90;99.90
19200;DHT22;9732;52.498;5.408;2023-06-14T08:26:42;22.90;99.30
19200;DHT22;9732;52.498;5.408;2023-06-14T08:29:11;23.00;99.60
19200;DHT22;9732;52.498;5.408;2023-06-14T08:31:40;23.10;98.80
19200;DHT22;9732;52.498;5.408;2023-06-14T08:34:09;23.20;97.50
19200;DHT22;9732;52.498;5.408;2023-06-14T08:36:39;23.30;97.90
19200;DHT22;9732;52.498;5.408;2023-06-14T08:39:07;23.30;97.00
19200;DHT22;9732;52.498;5.408;2023-06-14T08:41:36;23.40;96.80
19200;DHT22;9732;52.498;5.408;2023-06-14T08:44:04;23.50;99.10
19200;DHT22;9732;52.498;5.408;2023-06-14T08:46:33;23.60;98.40
19200;DHT22;9732;52.498;5.408;2023-06-14T08:49:05;23.70;97.70
19200;DHT22;9732;52.498;5.408;2023-06-14T08:51:38;23.90;98.20
19200;DHT22;9732;52.498;5.408;2023-06-14T08:54:07;23.90;96.50
19200;DHT22;9732;52.498;5.408;2023-06-14T08:56:40;24.00;96.60
19200;DHT22;9732;52.498;5.408;2023-06-14T08:59:09;24.10;96.90
19200;DHT22;9732;52.498;5.408;2023-06-14T09:01:38;24.20;96.10
19200;DHT22;9732;52.498;5.408;2023-06-14T09:04:07;24.30;95.00
19200;DHT22;9732;52.498;5.408;2023-06-14T09:06:34;24.30;95.40
19200;DHT22;9732;52.498;5.408;2023-06-14T09:09:03;24.40;94.90
19200;DHT22;9732;52.498;5.408;2023-06-14T09:11:30;24.50;96.80
19200;DHT22;9732;52.498;5.408;2023-06-14T09:13:58;24.70;96.00
19200;DHT22;9732;52.498;5.408;2023-06-14T09:16:26;24.70;95.80
19200;DHT22;9732;52.498;5.408;2023-06-14T09:18:54;24.80;94.90
19200;DHT22;9732;52.498;5.408;2023-06-14T09:21:23;25.00;95.30
19200;DHT22;9732;52.498;5.408;2023-06-14T09:23:51;25.00;94.40
19200;DHT22;9732;52.498;5.408;2023-06-14T09:26:19;25.10;94.90
19200;DHT22;9732;52.498;5.408;2023-06-14T09:28:50;25.10;94.50
19200;DHT22;9732;52.498;5.408;2023-06-14T09:31:19;25.20;93.80
19200;DHT22;9732;52.498;5.408;2023-06-14T09:33:48;25.30;94.70
19200;DHT22;9732;52.498;5.408;2023-06-14T09:36:18;25.40;94.40
19200;DHT22;9732;52.498;5.408;2023-06-14T09:38:53;25.50;94.40
19200;DHT22;9732;52.498;5.408;2023-06-14T09:41:20;25.60;94.70
19200;DHT22;9732;52.498;5.408;2023-06-14T09:43:50;25.80;96.30
19200;DHT22;9732;52.498;5.408;2023-06-14T09:46:18;25.80;94.20
19200;DHT22;9732;52.498;5.408;2023-06-14T09:48:45;26.00;95.10
19200;DHT22;9732;52.498;5.408;2023-06-14T09:51:14;26.10;96.00
19200;DHT22;9732;52.498;5.408;2023-06-14T09:53:43;26.30;94.70
19200;DHT22;9732;52.498;5.408;2023-06-14T09:56:12;26.40;93.10
19200;DHT22;9732;52.498;5.408;2023-06-14T09:58:40;26.60;94.80
19200;DHT22;9732;52.498;5.408;2023-06-14T10:01:08;26.70;96.70
19200;DHT22;9732;52.498;5.408;2023-06-14T10:03:40;26.90;95.40
19200;DHT22;9732;52.498;5.408;2023-06-14T10:06:09;27.10;93.80
19200;DHT22;9732;52.498;5.408;2023-06-14T10:08:36;27.20;93.10
19200;DHT22;9732;52.498;5.408;2023-06-14T10:11:04;27.40;92.60
19200;DHT22;9732;52.498;5.408;2023-06-14T10:13:33;27.50;92.70
19200;DHT22;9732;52.498;5.408;2023-06-14T10:16:07;27.70;92.40
19200;DHT22;9732;52.498;5.408;2023-06-14T10:18:45;27.90;92.30
19200;DHT22;9732;52.498;5.408;2023-06-14T10:21:32;28.10;90.70
19200;DHT22;9732;52.498;5.408;2023-06-14T10:24:05;28.20;90.20
19200;DHT22;9732;52.498;5.408;2023-06-14T10:26:34;28.50;90.40
19200;DHT22;9732;52.498;5.408;2023-06-14T10:29:08;28.90;89.80
19200;DHT22;9732;52.498;5.408;2023-06-14T10:31:44;29.30;88.60
19200;DHT22;9732;52.498;5.408;2023-06-14T10:34:12;29.50;88.70
19200;DHT22;9732;52.498;5.408;2023-06-14T10:37:03;29.70;88.30
19200;DHT22;9732;52.498;5.408;2023-06-14T10:39:32;29.50;85.80
19200;DHT22;9732;52.498;5.408;2023-06-14T10:42:02;29.50;85.30
19200;DHT22;9732;52.498;5.408;2023-06-14T10:44:40;29.70;85.60
19200;DHT22;9732;52.498;5.408;2023-06-14T10:47:24;30.10;85.30
19200;DHT22;9732;52.498;5.408;2023-06-14T10:49:53;29.90;82.10
19200;DHT22;9732;52.498;5.408;2023-06-14T10:52:28;29.70;82.50
19200;DHT22;9732;52.498;5.408;2023-06-14T10:55:05;29.80;83.20
19200;DHT22;9732;52.498;5.408;2023-06-14T10:57:35;30.10;82.10
19200;DHT22;9732;52.498;5.408;2023-06-14T11:00:06;30.30;84.40
19200;DHT22;9732;52.498;5.408;2023-06-14T11:03:30;30.60;81.70
19200;DHT22;9732;52.498;5.408;2023-06-14T11:06:14;30.90;82.30
19200;DHT22;9732;52.498;5.408;2023-06-14T11:11:52;31.30;81.40
19200;DHT22;9732;52.498;5.408;2023-06-14T11:14:22;31.30;82.20
19200;DHT22;9732;52.498;5.408;2023-06-14T11:16:50;31.50;80.20
19200;DHT22;9732;52.498;5.408;2023-06-14T11:19:21;31.60;82.50
19200;DHT22;9732;52.498;5.408;2023-06-14T11:21:48;31.60;78.60
19200;DHT22;9732;52.498;5.408;2023-06-14T11:24:19;31.70;78.80
19200;DHT22;9732;52.498;5.408;2023-06-14T11:26:47;31.60;76.80
19200;DHT22;9732;52.498;5.408;2023-06-14T11:29:15;31.50;77.60
19200;DHT22;9732;52.498;5.408;2023-06-14T11:31:44;31.50;78.40
19200;DHT22;9732;52.498;5.408;2023-06-14T11:34:13;31.70;77.20
19200;DHT22;9732;52.498;5.408;2023-06-14T11:36:42;31.80;79.10
19200;DHT22;9732;52.498;5.408;2023-06-14T11:39:11;31.70;79.70
19200;DHT22;9732;52.498;5.408;2023-06-14T11:41:40;31.80;77.70
19200;DHT22;9732;52.498;5.408;2023-06-14T11:44:09;31.90;77.40
19200;DHT22;9732;52.498;5.408;2023-06-14T11:46:36;31.90;77.60
19200;DHT22;9732;52.498;5.408;2023-06-14T11:49:03;31.90;76.90
19200;DHT22;9732;52.498;5.408;2023-06-14T11:51:34;32.00;77.10
19200;DHT22;9732;52.498;5.408;2023-06-14T11:54:03;31.90;77.40
19200;DHT22;9732;52.498;5.408;2023-06-14T11:56:31;32.10;78.50
19200;DHT22;9732;52.498;5.408;2023-06-14T11:58:59;32.30;78.90
19200;DHT22;9732;52.498;5.408;2023-06-14T12:01:26;32.20;75.80
19200;DHT22;9732;52.498;5.408;2023-06-14T12:03:54;32.10;75.80
19200;DHT22;9732;52.498;5.408;2023-06-14T12:06:29;31.80;77.00
19200;DHT22;9732;52.498;5.408;2023-06-14T12:09:00;31.50;75.50
19200;DHT22;9732;52.498;5.408;2023-06-14T12:11:33;31.40;74.70
19200;DHT22;9732;52.498;5.408;2023-06-14T12:14:03;31.50;76.90
19200;DHT22;9732;52.498;5.408;2023-06-14T12:16:32;31.70;79.80
19200;DHT22;9732;52.498;5.408;2023-06-14T12:19:09;32.00;74.50
19200;DHT22;9732;52.498;5.408;2023-06-14T12:21:40;32.30;77.80
19200;DHT22;9732;52.498;5.408;2023-06-14T12:24:08;32.30;75.00
19200;DHT22;9732;52.498;5.408;2023-06-14T12:26:38;32.40;76.10
19200;DHT22;9732;52.498;5.408;2023-06-14T12:29:06;32.60;78.70
19200;DHT22;9732;52.498;5.408;2023-06-14T12:31:38;32.80;76.80
19200;DHT22;9732;52.498;5.408;2023-06-14T12:34:05;32.90;74.40
19200;DHT22;9732;52.498;5.408;2023-06-14T12:36:32;32.80;72.30
19200;DHT22;9732;52.498;5.408;2023-06-14T12:39:01;32.70;71.70
19200;DHT22;9732;52.498;5.408;2023-06-14T12:41:31;32.40;70.70
19200;DHT22;9732;52.498;5.408;2023-06-14T12:43:59;32.40;70.70
19200;DHT22;9732;52.498;5.408;2023-06-14T12:46:30;32.80;71.70
19200;DHT22;9732;52.498;5.408;2023-06-14T12:48:59;32.70;71.90
19200;DHT22;9732;52.498;5.408;2023-06-14T12:51:27;32.90;72.00
19200;DHT22;9732;52.498;5.408;2023-06-14T12:53:54;32.90;71.80
19200;DHT22;9732;52.498;5.408;2023-06-14T12:56:21;33.00;72.00
19200;DHT22;9732;52.498;5.408;2023-06-14T12:58:51;33.10;70.40
19200;DHT22;9732;52.498;5.408;2023-06-14T13:01:17;33.20;72.30
19200;DHT22;9732;52.498;5.408;2023-06-14T13:03:45;33.10;70.10
19200;DHT22;9732;52.498;5.408;2023-06-14T13:06:14;33.10;69.20
19200;DHT22;9732;52.498;5.408;2023-06-14T13:08:40;33.20;71.80
19200;DHT22;9732;52.498;5.408;2023-06-14T13:11:07;33.20;69.90
19200;DHT22;9732;52.498;5.408;2023-06-14T13:13:36;33.40;70.00
19200;DHT22;9732;52.498;5.408;2023-06-14T13:16:04;33.30;68.40
19200;DHT22;9732;52.498;5.408;2023-06-14T13:18:34;33.40;69.60
19200;DHT22;9732;52.498;5.408;2023-06-14T13:21:01;33.50;71.50
19200;DHT22;9732;52.498;5.408;2023-06-14T13:23:28;33.30;69.80
19200;DHT22;9732;52.498;5.408;2023-06-14T13:25:55;33.30;68.50
19200;DHT22;9732;52.498;5.408;2023-06-14T13:28:23;33.30;70.20
19200;DHT22;9732;52.498;5.408;2023-06-14T13:30:50;33.10;69.40
19200;DHT22;9732;52.498;5.408;2023-06-14T13:33:19;33.00;71.80
19200;DHT22;9732;52.498;5.408;2023-06-14T13:35:46;33.00;67.70
19200;DHT22;9732;52.498;5.408;2023-06-14T13:38:14;33.00;68.10
19200;DHT22;9732;52.498;5.408;2023-06-14T13:40:42;33.20;70.00
19200;DHT22;9732;52.498;5.408;2023-06-14T13:43:09;33.10;68.90
19200;DHT22;9732;52.498;5.408;2023-06-14T13:45:37;32.90;69.10
19200;DHT22;9732;52.498;5.408;2023-06-14T13:48:05;32.90;70.10
19200;DHT22;9732;52.498;5.408;2023-06-14T13:50:34;33.00;69.60
19200;DHT22;9732;52.498;5.408;2023-06-14T13:53:00;32.90;68.20
19200;DHT22;9732;52.498;5.408;2023-06-14T13:55:28;32.80;69.00
19200;DHT22;9732;52.498;5.408;2023-06-14T13:57:56;32.70;68.80
19200;DHT22;9732;52.498;5.408;2023-06-14T14:00:23;32.50;71.70
19200;DHT22;9732;52.498;5.408;2023-06-14T14:02:50;32.30;68.30
19200;DHT22;9732;52.498;5.408;2023-06-14T14:05:18;32.30;69.40
19200;DHT22;9732;52.498;5.408;2023-06-14T14:07:47;32.20;68.70
19200;DHT22;9732;52.498;5.408;2023-06-14T14:10:15;32.10;69.30
19200;DHT22;9732;52.498;5.408;2023-06-14T14:12:45;32.10;72.50
19200;DHT22;9732;52.498;5.408;2023-06-14T14:15:11;32.10;70.00
19200;DHT22;9732;52.498;5.408;2023-06-14T14:17:40;31.90;69.90
19200;DHT22;9732;52.498;5.408;2023-06-14T14:20:08;31.80;71.00
19200;DHT22;9732;52.498;5.408;2023-06-14T14:22:38;31.60;71.00
19200;DHT22;9732;52.498;5.408;2023-06-14T14:25:07;31.50;73.70
19200;DHT22;9732;52.498;5.408;2023-06-14T14:27:33;31.60;70.80
19200;DHT22;9732;52.498;5.408;2023-06-14T14:30:04;31.50;71.70
19200;DHT22;9732;52.498;5.408;2023-06-14T14:32:31;31.70;73.20
19200;DHT22;9732;52.498;5.408;2023-06-14T14:34:58;31.70;72.50
19200;DHT22;9732;52.498;5.408;2023-06-14T14:37:26;31.60;71.40
19200;DHT22;9732;52.498;5.408;2023-06-14T14:39:54;31.40;72.00
19200;DHT22;9732;52.498;5.408;2023-06-14T14:42:23;31.40;72.80
19200;DHT22;9732;52.498;5.408;2023-06-14T14:44:52;31.40;73.70
19200;DHT22;9732;52.498;5.408;2023-06-14T14:47:19;31.50;74.20
19200;DHT22;9732;52.498;5.408;2023-06-14T14:49:50;31.40;73.50
19200;DHT22;9732;52.498;5.408;2023-06-14T14:52:18;31.20;73.20
19200;DHT22;9732;52.498;5.408;2023-06-14T14:54:45;31.10;70.60
19200;DHT22;9732;52.498;5.408;2023-06-14T14:57:12;30.60;70.70
19200;DHT22;9732;52.498;5.408;2023-06-14T14:59:44;30.50;74.90
19200;DHT22;9732;52.498;5.408;2023-06-14T15:02:11;30.40;76.10
19200;DHT22;9732;52.498;5.408;2023-06-14T15:04:38;30.40;74.70
19200;DHT22;9732;52.498;5.408;2023-06-14T15:07:05;30.30;73.10
19200;DHT22;9732;52.498;5.408;2023-06-14T15:09:32;30.10;75.20
19200;DHT22;9732;52.498;5.408;2023-06-14T15:11:59;29.90;72.40
19200;DHT22;9732;52.498;5.408;2023-06-14T15:14:26;29.70;75.10
19200;DHT22;9732;52.498;5.408;2023-06-14T15:16:54;29.60;75.20
19200;DHT22;9732;52.498;5.408;2023-06-14T15:19:22;29.60;75.00
19200;DHT22;9732;52.498;5.408;2023-06-14T15:21:49;29.50;73.70
19200;DHT22;9732;52.498;5.408;2023-06-14T15:24:16;29.40;75.80
19200;DHT22;9732;52.498;5.408;2023-06-14T15:26:48;29.50;74.00
19200;DHT22;9732;52.498;5.408;2023-06-14T15:29:14;29.50;76.10
19200;DHT22;9732;52.498;5.408;2023-06-14T15:31:42;29.60;80.40
19200;DHT22;9732;52.498;5.408;2023-06-14T15:34:10;29.60;77.80
19200;DHT22;9732;52.498;5.408;2023-06-14T15:36:37;29.30;74.90
19200;DHT22;9732;52.498;5.408;2023-06-14T15:39:05;29.10;75.10
19200;DHT22;9732;52.498;5.408;2023-06-14T15:41:32;28.90;76.30
19200;DHT22;9732;52.498;5.408;2023-06-14T15:43:59;28.90;78.30
19200;DHT22;9732;52.498;5.408;2023-06-14T15:46:29;29.00;75.70
19200;DHT22;9732;52.498;5.408;2023-06-14T15:48:56;29.00;78.00
19200;DHT22;9732;52.498;5.408;2023-06-14T15:51:25;29.00;77.20
19200;DHT22;9732;52.498;5.408;2023-06-14T15:53:53;29.00;77.90
19200;DHT22;9732;52.498;5.408;2023-06-14T15:56:19;29.00;78.40
19200;DHT22;9732;52.498;5.408;2023-06-14T15:58:46;28.90;78.40